createdAt,value
2023-05-05T00:01:14.162Z,100881.34
2023-05-05T00:03:42.781Z,100879.03
2023-05-05T00:06:10.662Z,100890.38
2023-05-05T00:08:38.284Z,100899.03
2023-05-05T00:11:06.118Z,100892.25
2023-05-05T00:13:33.911Z,100893.81
2023-05-05T00:16:01.464Z,100895.69
2023-05-05T00:18:29.617Z,100894.84
2023-05-05T00:20:57.114Z,100889.62
2023-05-05T00:23:24.690Z,100882.34
2023-05-05T00:25:52.501Z,100896.41
2023-05-05T00:28:20.120Z,100890.09
2023-05-05T00:30:48.004Z,100893.19
2023-05-05T00:33:15.997Z,100885.22
2023-05-05T00:35:43.672Z,100892.25
2023-05-05T00:38:11.396Z,100892.34
2023-05-05T00:40:39.491Z,100892.97
2023-05-05T00:43:07.732Z,100883.88
2023-05-05T00:45:37.358Z,100881.25
2023-05-05T00:48:06.009Z,100884.97
2023-05-05T00:50:33.620Z,100883.47
2023-05-05T00:53:02.824Z,100879.50
2023-05-05T00:55:31.239Z,100874.31
2023-05-05T00:58:00.307Z,100877.91
2023-05-05T01:00:28.345Z,100882.00
2023-05-05T01:02:56.385Z,100879.75
2023-05-05T01:05:24.549Z,100880.16
2023-05-05T01:08:01.010Z,100874.63
2023-05-05T01:10:45.397Z,100875.34
2023-05-05T01:13:25.566Z,100873.84
2023-05-05T01:16:12.332Z,100870.53
2023-05-05T01:19:07.977Z,100870.53
2023-05-05T01:21:41.578Z,100873.69
2023-05-05T01:24:28.159Z,100871.31
2023-05-05T01:27:20.216Z,100864.94
2023-05-05T01:30:25.161Z,100861.66
2023-05-05T01:32:56.976Z,100859.19
2023-05-05T01:35:50.920Z,100861.88
2023-05-05T01:38:30.856Z,100866.75
2023-05-05T01:41:11.261Z,100869.47
2023-05-05T01:43:41.388Z,100866.06
2023-05-05T01:46:09.017Z,100868.41
2023-05-05T01:48:37.327Z,100866.75
2023-05-05T01:51:05.845Z,100865.75
2023-05-05T01:53:34.419Z,100857.22
2023-05-05T01:56:03.049Z,100854.72
2023-05-05T01:58:32.516Z,100850.53
2023-05-05T02:01:01.032Z,100847.06
2023-05-05T02:03:29.914Z,100859.28
2023-05-05T02:05:58.547Z,100855.44
2023-05-05T02:08:26.960Z,100857.72
2023-05-05T02:10:54.820Z,100858.62
2023-05-05T02:13:23.537Z,100854.94
2023-05-05T02:15:52.101Z,100849.03
2023-05-05T02:18:22.490Z,100850.59
2023-05-05T02:20:53.131Z,100858.16
2023-05-05T02:23:21.346Z,100850.84
2023-05-05T02:25:56.061Z,100851.47
2023-05-05T02:28:50.611Z,100850.87
2023-05-05T02:31:21.364Z,100849.53
2023-05-05T02:33:50.840Z,100851.88
2023-05-05T02:36:20.776Z,100854.94
2023-05-05T02:39:04.764Z,100855.69
2023-05-05T02:41:36.360Z,100859.03
2023-05-05T02:44:05.335Z,100858.00
2023-05-05T02:46:33.782Z,100847.59
2023-05-05T02:49:01.722Z,100846.22
2023-05-05T02:51:29.691Z,100856.19
2023-05-05T02:53:58.622Z,100848.16
2023-05-05T02:56:38.269Z,100856.72
2023-05-05T02:59:16.171Z,100859.69
2023-05-05T03:02:16.423Z,100862.38
2023-05-05T03:04:57.261Z,100863.97
2023-05-05T03:07:31.691Z,100871.69
2023-05-05T03:10:20.941Z,100873.44
2023-05-05T03:12:53.834Z,100873.78
2023-05-05T03:15:25.845Z,100864.63
2023-05-05T03:17:54.240Z,100873.44
2023-05-05T03:20:22.895Z,100870.66
2023-05-05T03:22:52.012Z,100870.34
2023-05-05T03:25:19.562Z,100871.94
2023-05-05T03:27:48.252Z,100880.63
2023-05-05T03:30:20.182Z,100874.03
2023-05-05T03:32:48.584Z,100876.06
2023-05-05T03:35:16.530Z,100868.88
2023-05-05T03:37:44.046Z,100869.81
2023-05-05T03:40:13.689Z,100874.88
2023-05-05T03:42:41.856Z,100871.41
2023-05-05T03:45:09.894Z,100877.50
2023-05-05T03:47:38.746Z,100877.84
2023-05-05T03:50:07.607Z,100878.41
2023-05-05T03:52:36.294Z,100880.41
2023-05-05T03:55:04.602Z,100875.03
2023-05-05T03:57:32.978Z,100882.81
2023-05-05T04:00:01.151Z,100885.16
2023-05-05T04:02:30.568Z,100883.06
2023-05-05T04:04:58.707Z,100881.78
2023-05-05T04:07:27.061Z,100889.34
2023-05-05T04:09:56.058Z,100894.59
2023-05-05T04:12:23.975Z,100892.16
2023-05-05T04:14:51.614Z,100891.78
2023-05-05T04:17:19.502Z,100886.16
2023-05-05T04:19:47.308Z,100896.91
2023-05-05T04:22:14.940Z,100894.66
2023-05-05T04:24:42.539Z,100900.47
2023-05-05T04:27:10.698Z,100900.75
2023-05-05T04:29:38.492Z,100896.22
2023-05-05T04:32:06.564Z,100899.41
2023-05-05T04:34:34.474Z,100899.25
2023-05-05T04:37:02.030Z,100904.75
2023-05-05T04:39:29.967Z,100899.91
2023-05-05T04:41:58.014Z,100902.81
2023-05-05T04:44:25.772Z,100899.19
2023-05-05T04:46:53.364Z,100900.44
2023-05-05T04:49:21.878Z,100907.00
2023-05-05T04:51:49.967Z,100912.75
2023-05-05T04:54:17.949Z,100910.91
2023-05-05T04:56:45.915Z,100916.97
2023-05-05T04:59:14.231Z,100916.81
2023-05-05T05:01:42.136Z,100920.09
2023-05-05T05:04:13.080Z,100916.88
2023-05-05T05:06:40.698Z,100917.31
2023-05-05T05:09:08.301Z,100913.81
2023-05-05T05:11:36.026Z,100922.88
2023-05-05T05:14:03.701Z,100913.19
2023-05-05T05:16:31.338Z,100925.22
2023-05-05T05:19:01.483Z,100930.84
2023-05-05T05:21:30.129Z,100926.91
2023-05-05T05:23:57.813Z,100929.47
2023-05-05T05:26:26.202Z,100920.12
2023-05-05T05:28:54.119Z,100924.19
2023-05-05T05:31:22.095Z,100922.72
2023-05-05T05:33:51.082Z,100928.44
2023-05-05T05:36:19.242Z,100921.37
2023-05-05T05:38:46.954Z,100921.72
2023-05-05T05:41:15.461Z,100922.09
2023-05-05T05:43:43.125Z,100927.34
2023-05-05T05:46:11.408Z,100923.06
2023-05-05T05:48:42.702Z,100938.72
2023-05-05T05:51:17.796Z,100932.56
2023-05-05T05:54:00.135Z,100926.47
2023-05-05T05:56:30.119Z,100931.38
2023-05-05T05:58:58.164Z,100919.09
2023-05-05T06:01:26.106Z,100930.69
2023-05-05T06:03:54.991Z,100935.91
2023-05-05T06:06:23.521Z,100935.34
2023-05-05T06:08:51.616Z,100938.25
2023-05-05T06:11:20.104Z,100937.38
2023-05-05T06:13:48.304Z,100939.94
2023-05-05T06:16:16.076Z,100943.44
2023-05-05T06:18:44.780Z,100941.53
2023-05-05T06:21:13.385Z,100945.50
2023-05-05T06:23:42.278Z,100940.69
2023-05-05T06:26:10.073Z,100949.59
2023-05-05T06:28:37.811Z,100949.19
2023-05-05T06:31:05.583Z,100946.19
2023-05-05T06:33:33.620Z,100952.00
2023-05-05T06:36:01.467Z,100953.06
2023-05-05T06:38:29.598Z,100946.50
2023-05-05T06:40:58.689Z,100957.34
2023-05-05T06:43:30.691Z,100953.13
2023-05-05T06:46:04.742Z,100944.19
2023-05-05T06:48:35.190Z,100956.56
2023-05-05T06:51:05.320Z,100955.78
2023-05-05T06:53:34.017Z,100953.06
2023-05-05T06:56:01.678Z,100954.44
2023-05-05T06:58:30.281Z,100947.31
2023-05-05T07:00:57.956Z,100947.47
2023-05-05T07:03:27.962Z,100954.22
2023-05-05T07:05:56.647Z,100946.66
2023-05-05T07:08:27.946Z,100952.22
2023-05-05T07:10:57.942Z,100952.66
2023-05-05T07:13:26.018Z,100954.63
2023-05-05T07:15:54.025Z,100949.09
2023-05-05T07:18:22.582Z,100949.31
2023-05-05T07:20:50.329Z,100953.22
2023-05-05T07:23:18.056Z,100949.94
2023-05-05T07:25:53.260Z,100953.78
2023-05-05T07:28:30.308Z,100948.19
2023-05-05T07:31:05.313Z,100949.91
2023-05-05T07:33:34.502Z,100945.31
2023-05-05T07:36:02.786Z,100939.22
2023-05-05T07:38:30.725Z,100945.66
2023-05-05T07:40:58.335Z,100939.69
2023-05-05T07:43:26.218Z,100950.84
2023-05-05T07:45:54.462Z,100947.06
2023-05-05T07:48:22.335Z,100945.28
2023-05-05T07:50:50.527Z,100941.00
2023-05-05T07:53:18.303Z,100949.63
2023-05-05T07:55:46.377Z,100937.41
2023-05-05T07:58:55.330Z,100937.81
2023-05-05T08:01:23.202Z,100935.50
2023-05-05T08:03:51.429Z,100941.63
2023-05-05T08:06:22.390Z,100936.13
2023-05-05T08:08:50.747Z,100940.81
2023-05-05T08:11:21.904Z,100944.12
2023-05-05T08:13:49.537Z,100943.34
2023-05-05T08:16:17.558Z,100943.75
2023-05-05T08:18:46.301Z,100942.75
2023-05-05T08:21:14.592Z,100950.16
2023-05-05T08:23:42.075Z,100944.31
2023-05-05T08:26:10.143Z,100946.94
2023-05-05T08:28:37.751Z,100950.62
2023-05-05T08:31:06.812Z,100940.50
2023-05-05T08:33:34.692Z,100948.56
2023-05-05T08:36:02.138Z,100944.00
2023-05-05T08:38:29.726Z,100936.22
2023-05-05T08:40:57.551Z,100944.03
2023-05-05T08:43:25.804Z,100944.75
2023-05-05T08:45:53.791Z,100939.75
2023-05-05T08:48:23.067Z,100937.09
2023-05-05T08:51:01.949Z,100942.34
2023-05-05T08:53:37.306Z,100933.19
2023-05-05T08:56:05.945Z,100931.41
2023-05-05T08:58:37.137Z,100933.19
2023-05-05T09:01:06.582Z,100930.28
2023-05-05T09:03:35.930Z,100916.59
2023-05-05T09:06:04.338Z,100928.22
2023-05-05T09:08:35.081Z,100928.34
2023-05-05T09:11:05.239Z,100935.28
2023-05-05T09:13:32.974Z,100923.34
2023-05-05T09:16:00.738Z,100931.03
2023-05-05T09:18:29.090Z,100923.47
2023-05-05T09:20:59.302Z,100921.25
2023-05-05T09:23:27.265Z,100913.50
2023-05-05T09:26:06.072Z,100915.50
2023-05-05T09:28:33.977Z,100912.03
2023-05-05T09:31:16.112Z,100909.66
2023-05-05T09:33:44.252Z,100916.59
2023-05-05T09:36:12.327Z,100911.94
2023-05-05T09:38:39.868Z,100910.88
2023-05-05T09:41:23.191Z,100903.59
2023-05-05T09:45:00.986Z,100910.91
2023-05-05T09:47:53.239Z,100914.03
2023-05-05T09:50:31.062Z,100911.25
2023-05-05T09:53:01.513Z,100910.56
2023-05-05T09:55:31.450Z,100901.37
2023-05-05T09:58:20.115Z,100904.75
2023-05-05T10:00:48.938Z,100898.13
2023-05-05T10:03:17.998Z,100900.50
2023-05-05T10:05:54.362Z,100896.12
2023-05-05T10:08:25.946Z,100887.69
2023-05-05T10:10:54.298Z,100896.28
2023-05-05T10:13:24.039Z,100889.16
2023-05-05T10:15:54.015Z,100889.75
2023-05-05T10:18:27.208Z,100896.59
2023-05-05T10:21:03.115Z,100895.44
2023-05-05T10:23:38.880Z,100893.03
2023-05-05T10:26:07.877Z,100884.59
2023-05-05T10:28:50.922Z,100888.81
2023-05-05T10:31:26.505Z,100876.34
2023-05-05T10:34:01.222Z,100869.22
2023-05-05T10:36:29.988Z,100875.03
2023-05-05T10:38:58.613Z,100877.53
2023-05-05T10:41:29.285Z,100880.34
2023-05-05T10:44:00.430Z,100870.91
2023-05-05T10:46:29.744Z,100872.09
2023-05-05T10:49:03.434Z,100864.72
2023-05-05T10:51:49.299Z,100863.56
2023-05-05T10:54:54.281Z,100855.25
2023-05-05T10:57:25.148Z,100859.16
2023-05-05T10:59:53.106Z,100851.34
2023-05-05T11:02:28.856Z,100852.53
2023-05-05T11:05:23.853Z,100844.88
2023-05-05T11:10:57.750Z,100835.62
2023-05-05T11:13:26.836Z,100833.00
2023-05-05T11:15:56.291Z,100831.56
2023-05-05T11:18:59.887Z,100837.44
2023-05-05T11:22:01.124Z,100828.25
2023-05-05T11:24:31.501Z,100825.31
2023-05-05T11:27:05.028Z,100824.16
2023-05-05T11:30:09.063Z,100822.41
2023-05-05T11:32:37.338Z,100817.53
2023-05-05T11:35:06.335Z,100821.38
2023-05-05T11:37:34.542Z,100815.53
2023-05-05T11:40:22.147Z,100809.91
2023-05-05T11:42:49.875Z,100818.19
2023-05-05T11:45:22.896Z,100803.59
2023-05-05T11:47:51.863Z,100806.25
2023-05-05T11:50:21.778Z,100799.22
2023-05-05T11:52:49.569Z,100806.25
2023-05-05T11:55:20.731Z,100797.69
2023-05-05T11:57:48.821Z,100803.88
2023-05-05T12:00:17.131Z,100794.59
2023-05-05T12:02:46.168Z,100791.78
2023-05-05T12:05:19.419Z,100797.09
2023-05-05T12:07:47.935Z,100788.09
2023-05-05T12:10:22.795Z,100789.94
2023-05-05T12:12:52.533Z,100783.41
